KHTL/HTL METAR and TAF weather

Enter ICAO airport designator
Station Type Date Time Source
KHTL METAR 2019/02/21 10:53 UTC NOAA

KHTL 211053Z AUTO 24009G17KT 10SM SCT023 SCT032 OVC040 M02/M05 A2982 RMK AO2 SLP112 T10171050


Station Type Date Time Source
KHTL Decoded METAR 2019/02/21 10:53 UTC NOAA

ROSCOMMON COUNTY AIRPORT, MI, United States (KHTL) 44-21N 084-40W 351M
Feb 21, 2019 - 05:53 AM EST / 2019.02.21 1053 UTC
Wind: from the WSW (240 degrees) at 10 MPH (9 KT) gusting to 20 MPH (17 KT):0
Visibility: 10 mile(s):0
Sky conditions: overcast
Temperature: 28.9 F (-1.7 C)
Windchill: 19 F (-7 C):1
Dew Point: 23.0 F (-5.0 C)
Relative Humidity: 78%
Pressure (altimeter): 29.82 in. Hg (1009 hPa)
ob: KHTL 211053Z AUTO 24009G17KT 10SM SCT023 SCT032 OVC040 M02/M05 A2982 RMK AO2 SLP112 T10171050
cycle: 11

Station Type Date Time Source
KHTL TAF UTC NOAA

Error!


Example: see airport list